createdAt,value
2019-05-25T00:01:04.114Z,76.25
2019-05-25T00:03:33.472Z,76.63
2019-05-25T00:06:03.156Z,76.63
2019-05-25T00:08:33.094Z,76.99
2019-05-25T00:11:02.470Z,77.39
2019-05-25T00:13:32.128Z,77.90
2019-05-25T00:16:01.494Z,77.80
2019-05-25T00:18:31.055Z,78.16
2019-05-25T00:21:00.695Z,78.26
2019-05-25T00:23:30.359Z,78.23
2019-05-25T00:26:00.029Z,78.30
2019-05-25T00:28:29.393Z,78.29
2019-05-25T00:30:59.095Z,79.03
2019-05-25T00:33:28.463Z,79.03
2019-05-25T00:35:58.045Z,78.90
2019-05-25T00:38:27.421Z,79.62
2019-05-25T00:40:57.029Z,79.56
2019-05-25T00:43:27.566Z,79.54
2019-05-25T00:45:57.097Z,79.73
2019-05-25T00:48:27.051Z,80.17
2019-05-25T00:50:56.414Z,79.67
2019-05-25T00:53:26.210Z,79.52
2019-05-25T00:55:55.899Z,79.47
2019-05-25T00:58:25.324Z,79.58
2019-05-25T01:00:54.766Z,80.10
2019-05-25T01:03:24.396Z,79.99
2019-05-25T01:05:54.088Z,79.32
2019-05-25T01:08:23.450Z,79.32
2019-05-25T01:10:53.128Z,79.22
2019-05-25T01:13:22.796Z,79.40
2019-05-25T01:15:53.179Z,79.40
2019-05-25T01:18:22.551Z,79.20
2019-05-25T01:20:52.846Z,78.17
2019-05-25T01:23:22.365Z,78.30
2019-05-25T01:25:52.476Z,77.60
2019-05-25T01:28:22.113Z,77.12
2019-05-25T01:30:51.839Z,77.60
2019-05-25T01:33:21.565Z,77.23
2019-05-25T01:35:51.174Z,77.23
2019-05-25T01:38:21.471Z,77.10
2019-05-25T01:40:51.091Z,76.53
2019-05-25T01:43:21.423Z,76.79
2019-05-25T01:45:51.132Z,76.68
2019-05-25T01:48:21.576Z,76.17
2019-05-25T01:50:51.155Z,75.97
2019-05-25T01:53:21.522Z,76.02
2019-05-25T01:55:51.201Z,75.96
2019-05-25T01:58:22.484Z,75.63
2019-05-25T02:00:52.873Z,75.45
2019-05-25T02:03:22.543Z,76.35
2019-05-25T02:05:52.195Z,77.30
2019-05-25T02:08:21.647Z,76.57
2019-05-25T02:10:51.216Z,76.57
2019-05-25T02:13:21.520Z,76.24
2019-05-25T02:15:51.183Z,76.24
2019-05-25T02:18:21.636Z,76.63
2019-05-25T02:20:51.417Z,77.15
2019-05-25T02:23:21.654Z,76.83
2019-05-25T02:25:51.241Z,77.22
2019-05-25T02:28:21.596Z,78.30
2019-05-25T02:30:52.209Z,78.81
2019-05-25T02:33:21.942Z,79.01
2019-05-25T02:35:51.485Z,79.34
2019-05-25T02:38:21.608Z,79.66
2019-05-25T02:40:51.233Z,79.65
2019-05-25T02:43:21.570Z,80.36
2019-05-25T02:45:50.951Z,80.36
2019-05-25T02:48:21.719Z,80.18
2019-05-25T02:50:53.082Z,80.64
2019-05-25T02:53:22.577Z,80.95
2019-05-25T02:55:52.265Z,81.18
2019-05-25T02:58:21.635Z,81.13
2019-05-25T03:00:51.448Z,80.56
2019-05-25T03:03:21.748Z,80.59
2019-05-25T03:05:51.637Z,80.40
2019-05-25T03:08:21.710Z,80.80
2019-05-25T03:10:51.479Z,81.43
2019-05-25T03:13:21.849Z,81.85
2019-05-25T03:15:51.400Z,82.10
2019-05-25T03:18:21.781Z,82.32
2019-05-25T03:20:51.410Z,82.16
2019-05-25T03:23:21.859Z,82.20
2019-05-25T03:25:52.058Z,82.33
2019-05-25T03:28:21.857Z,81.90
2019-05-25T03:30:51.464Z,81.56
2019-05-25T03:33:21.803Z,81.63
2019-05-25T03:35:51.422Z,81.78
2019-05-25T03:38:21.742Z,81.70
2019-05-25T03:40:51.385Z,81.64
2019-05-25T03:43:21.688Z,81.67
2019-05-25T03:45:51.074Z,81.75
2019-05-25T03:48:21.812Z,81.67
2019-05-25T03:50:51.482Z,81.27
2019-05-25T03:53:21.761Z,81.46
2019-05-25T03:56:04.756Z,81.06
2019-05-25T03:58:22.826Z,81.12
2019-05-25T04:00:52.622Z,81.21
2019-05-25T04:03:21.980Z,81.10
2019-05-25T04:05:51.636Z,80.94
2019-05-25T04:08:21.828Z,80.70
2019-05-25T04:10:51.565Z,80.76
2019-05-25T04:13:21.811Z,80.57
2019-05-25T04:15:51.497Z,80.57
2019-05-25T04:18:21.941Z,80.40
2019-05-25T04:20:51.486Z,79.86
2019-05-25T04:23:21.879Z,79.63
2019-05-25T04:25:51.437Z,79.65
2019-05-25T04:28:21.891Z,79.84
2019-05-25T04:30:51.551Z,80.21
2019-05-25T04:33:21.954Z,80.35
2019-05-25T04:35:51.508Z,80.01
2019-05-25T04:38:21.879Z,80.29
2019-05-25T04:40:51.464Z,80.04
2019-05-25T04:43:21.863Z,80.21
2019-05-25T04:45:51.514Z,79.78
2019-05-25T04:48:21.981Z,79.85
2019-05-25T04:50:51.556Z,80.70
2019-05-25T04:53:21.910Z,80.07
2019-05-25T04:55:51.572Z,78.39
2019-05-25T04:58:22.131Z,78.14
2019-05-25T05:00:51.762Z,77.96
2019-05-25T05:03:22.082Z,77.60
2019-05-25T05:05:52.691Z,77.71
2019-05-25T05:08:22.823Z,77.70
2019-05-25T05:10:52.177Z,77.64
2019-05-25T05:13:22.475Z,77.84
2019-05-25T05:15:51.839Z,78.03
2019-05-25T05:18:21.240Z,78.20
2019-05-25T05:20:50.755Z,77.78
2019-05-25T05:23:20.154Z,77.29
2019-05-25T05:25:49.694Z,77.84
2019-05-25T05:28:19.731Z,77.57
2019-05-25T05:30:49.086Z,76.51
2019-05-25T05:33:20.557Z,76.95
2019-05-25T05:35:49.975Z,76.20
2019-05-25T05:38:19.712Z,75.79
2019-05-25T05:40:49.061Z,75.82
2019-05-25T05:43:18.953Z,76.14
2019-05-25T05:45:48.580Z,76.32
2019-05-25T05:48:18.845Z,76.42
2019-05-25T05:50:49.874Z,76.83
2019-05-25T05:53:20.001Z,75.26
2019-05-25T05:55:49.667Z,74.30
2019-05-25T05:58:19.109Z,73.78
2019-05-25T06:00:48.759Z,73.77
2019-05-25T06:03:19.146Z,74.40
2019-05-25T06:05:48.828Z,74.31
2019-05-25T06:08:18.211Z,74.87
2019-05-25T06:10:47.914Z,74.12
2019-05-25T06:13:17.621Z,73.25
2019-05-25T06:15:46.978Z,71.98
2019-05-25T06:18:16.365Z,72.04
2019-05-25T06:20:45.855Z,72.00
2019-05-25T06:23:16.123Z,71.37
2019-05-25T06:25:45.902Z,71.52
2019-05-25T06:28:18.297Z,70.39
2019-05-25T06:30:46.647Z,70.78
2019-05-25T06:33:17.959Z,70.72
2019-05-25T06:35:47.317Z,69.95
2019-05-25T06:38:16.968Z,71.27
2019-05-25T06:40:46.350Z,70.17
2019-05-25T06:43:15.982Z,69.09
2019-05-25T06:45:45.400Z,68.36
2019-05-25T06:48:14.949Z,69.00
2019-05-25T06:50:44.318Z,69.05
2019-05-25T06:53:13.901Z,68.41
2019-05-25T06:55:44.097Z,67.64
2019-05-25T06:58:13.543Z,66.86
2019-05-25T07:00:43.163Z,68.58
2019-05-25T07:03:12.855Z,67.28
2019-05-25T07:05:42.253Z,66.92
2019-05-25T07:08:11.951Z,66.02
2019-05-25T07:10:41.350Z,66.84
2019-05-25T07:13:11.034Z,68.38
2019-05-25T07:15:40.473Z,65.30
2019-05-25T07:18:09.995Z,63.68
2019-05-25T07:20:39.359Z,61.82
2019-05-25T07:23:08.954Z,62.98
2019-05-25T07:25:38.314Z,63.18
2019-05-25T07:28:07.980Z,62.27
2019-05-25T07:30:37.337Z,62.74
2019-05-25T07:33:07.041Z,63.53
2019-05-25T07:35:36.393Z,63.90
2019-05-25T07:38:06.089Z,62.71
2019-05-25T07:40:35.454Z,61.45
2019-05-25T07:43:05.115Z,61.50
2019-05-25T07:45:34.488Z,61.05
2019-05-25T07:48:03.986Z,60.85
2019-05-25T07:50:33.506Z,60.54
2019-05-25T07:53:02.994Z,62.20
2019-05-25T07:55:33.328Z,61.84
2019-05-25T07:58:16.475Z,61.58
2019-05-25T08:00:35.093Z,61.58
2019-05-25T08:03:04.522Z,60.40
2019-05-25T08:05:34.227Z,63.01
2019-05-25T08:08:04.024Z,63.01
2019-05-25T08:10:33.808Z,61.89
2019-05-25T08:13:03.203Z,60.20
2019-05-25T08:15:32.570Z,59.51
2019-05-25T08:18:02.308Z,60.12
2019-05-25T08:20:31.955Z,61.46
2019-05-25T08:23:02.259Z,60.94
2019-05-25T08:25:32.226Z,61.62
2019-05-25T08:28:02.272Z,62.22
2019-05-25T08:30:32.208Z,61.06
2019-05-25T08:33:01.560Z,61.11
2019-05-25T08:35:31.235Z,63.34
2019-05-25T08:38:00.596Z,60.68
2019-05-25T08:40:30.529Z,60.93
2019-05-25T08:43:00.174Z,62.43
2019-05-25T08:45:29.559Z,61.09
2019-05-25T08:47:59.157Z,61.27
2019-05-25T08:50:37.959Z,61.96
2019-05-25T08:52:59.644Z,62.51
2019-05-25T08:55:29.320Z,61.01
2019-05-25T08:57:58.687Z,60.26
2019-05-25T09:00:28.378Z,59.28
2019-05-25T09:02:58.063Z,59.47
2019-05-25T09:05:27.438Z,60.19
2019-05-25T09:07:57.140Z,60.85
2019-05-25T09:10:26.508Z,60.85
2019-05-25T09:12:56.875Z,61.52
2019-05-25T09:15:26.547Z,59.93
2019-05-25T09:17:56.620Z,59.19
2019-05-25T09:20:26.282Z,59.32
2019-05-25T09:22:55.675Z,60.71
2019-05-25T09:25:25.326Z,59.54
2019-05-25T09:27:55.239Z,59.76
2019-05-25T09:30:24.678Z,61.12
2019-05-25T09:32:54.332Z,60.69
2019-05-25T09:35:23.715Z,60.90
2019-05-25T09:37:53.227Z,61.26
2019-05-25T09:40:22.671Z,59.88
2019-05-25T09:42:52.396Z,60.94
2019-05-25T09:45:22.656Z,59.32
2019-05-25T09:47:52.354Z,59.24
2019-05-25T09:50:22.645Z,60.43
2019-05-25T09:52:52.261Z,60.57
2019-05-25T09:55:22.616Z,60.99
2019-05-25T09:57:52.278Z,59.80
2019-05-25T10:00:23.699Z,60.14
2019-05-25T10:02:53.703Z,61.37
2019-05-25T10:05:23.377Z,60.26
2019-05-25T10:07:52.784Z,59.36
2019-05-25T10:10:22.742Z,59.35
2019-05-25T10:12:53.346Z,59.01
2019-05-25T10:15:22.845Z,59.29
2019-05-25T10:17:53.354Z,59.17
2019-05-25T10:20:24.036Z,59.58
2019-05-25T10:22:53.396Z,58.94
2019-05-25T10:25:22.763Z,57.52
2019-05-25T10:27:52.420Z,58.19
2019-05-25T10:30:22.852Z,58.02
2019-05-25T10:32:52.400Z,58.35
2019-05-25T10:35:22.736Z,59.59
2019-05-25T10:37:52.366Z,59.23
2019-05-25T10:40:23.136Z,59.62
2019-05-25T10:42:52.550Z,60.22
2019-05-25T10:45:22.861Z,60.03
2019-05-25T10:47:52.432Z,60.90
2019-05-25T10:50:22.810Z,60.60
2019-05-25T10:52:52.409Z,61.11
2019-05-25T10:55:22.705Z,60.72
2019-05-25T10:57:52.376Z,59.70
2019-05-25T11:00:23.026Z,59.92
2019-05-25T11:02:52.479Z,60.45
2019-05-25T11:05:22.878Z,61.74
2019-05-25T11:07:52.657Z,60.86
2019-05-25T11:10:23.068Z,60.68
2019-05-25T11:12:52.630Z,60.96
2019-05-25T11:15:22.931Z,61.16
2019-05-25T11:17:52.496Z,61.32
2019-05-25T11:20:22.872Z,61.18
2019-05-25T11:22:52.451Z,61.21
2019-05-25T11:25:22.819Z,61.67
2019-05-25T11:27:52.205Z,62.69
2019-05-25T11:30:23.544Z,62.44
2019-05-25T11:32:52.924Z,61.27
2019-05-25T11:35:22.908Z,61.69
2019-05-25T11:37:52.474Z,61.55
2019-05-25T11:40:22.957Z,61.84
2019-05-25T11:42:52.829Z,62.43
2019-05-25T11:45:23.588Z,62.08
2019-05-25T11:47:52.953Z,62.28
2019-05-25T11:50:22.878Z,62.16
2019-05-25T11:52:52.550Z,62.40
2019-05-25T11:55:22.819Z,62.65
2019-05-25T11:57:52.487Z,62.42
2019-05-25T12:00:25.536Z,60.65
2019-05-25T12:02:54.673Z,60.72
2019-05-25T12:05:24.010Z,59.57
2019-05-25T12:07:53.559Z,59.63
2019-05-25T12:10:22.921Z,60.20
2019-05-25T12:12:52.805Z,62.11
2019-05-25T12:15:22.907Z,60.64
2019-05-25T12:17:52.639Z,60.15
2019-05-25T12:20:23.009Z,58.96
2019-05-25T12:22:52.607Z,58.42
2019-05-25T12:25:22.895Z,57.79
2019-05-25T12:27:52.338Z,57.88
2019-05-25T12:30:23.301Z,58.24
2019-05-25T12:32:53.503Z,57.00
2019-05-25T12:35:23.035Z,55.95
2019-05-25T12:37:52.613Z,55.53
2019-05-25T12:40:23.060Z,55.26
2019-05-25T12:42:52.729Z,55.62
2019-05-25T12:45:24.223Z,55.37
2019-05-25T12:47:54.387Z,54.99
2019-05-25T12:50:24.995Z,55.03
2019-05-25T12:52:54.640Z,54.57
2019-05-25T12:55:24.293Z,52.72
2019-05-25T12:57:53.765Z,54.44
2019-05-25T13:00:23.209Z,55.25
2019-05-25T13:02:52.810Z,55.15
2019-05-25T13:05:33.651Z,54.75
2019-05-25T13:07:59.157Z,53.49
2019-05-25T13:10:29.203Z,52.62
2019-05-25T13:13:01.944Z,51.55
2019-05-25T13:15:30.011Z,48.80
2019-05-25T13:17:59.696Z,48.80
2019-05-25T13:20:44.827Z,48.86
2019-05-25T13:23:36.845Z,50.72
2019-05-25T13:26:10.249Z,51.40
2019-05-25T13:28:39.942Z,52.02
2019-05-25T13:31:12.052Z,52.02
2019-05-25T13:33:40.353Z,52.57
2019-05-25T13:36:09.739Z,53.39
2019-05-25T13:38:39.120Z,53.65
2019-05-25T13:41:08.788Z,54.11
2019-05-25T13:43:52.494Z,54.19
2019-05-25T13:46:35.969Z,54.67
2019-05-25T13:49:09.916Z,55.56
2019-05-25T13:51:39.285Z,55.54
2019-05-25T13:54:08.925Z,55.46
2019-05-25T13:56:38.288Z,55.12
2019-05-25T13:59:07.830Z,55.55
2019-05-25T14:01:37.484Z,55.37
2019-05-25T14:04:06.957Z,55.44
2019-05-25T14:06:36.322Z,56.43
2019-05-25T14:09:06.685Z,56.49
2019-05-25T14:11:36.101Z,55.50
2019-05-25T14:14:06.739Z,56.26
2019-05-25T14:16:36.435Z,58.04
2019-05-25T14:19:05.971Z,58.04
2019-05-25T14:21:35.916Z,57.11
2019-05-25T14:24:05.289Z,57.53
2019-05-25T14:26:35.120Z,58.43
2019-05-25T14:29:04.802Z,58.42
2019-05-25T14:31:44.817Z,58.78
2019-05-25T14:34:08.616Z,57.72
2019-05-25T14:36:38.135Z,57.63
2019-05-25T14:39:08.677Z,55.82
2019-05-25T14:41:38.161Z,55.63
2019-05-25T14:44:07.865Z,56.59
2019-05-25T14:46:37.590Z,55.59
2019-05-25T14:49:08.017Z,56.08
2019-05-25T14:51:38.374Z,55.38
2019-05-25T14:54:07.982Z,54.86
2019-05-25T14:56:37.341Z,54.86
2019-05-25T14:59:07.078Z,55.36
2019-05-25T15:01:36.800Z,56.27
2019-05-25T15:04:06.164Z,56.44
2019-05-25T15:06:35.556Z,53.93
2019-05-25T15:09:07.057Z,54.53
2019-05-25T15:11:36.420Z,54.31
2019-05-25T15:14:05.967Z,53.98
2019-05-25T15:16:35.630Z,55.14
2019-05-25T15:19:06.131Z,54.80
2019-05-25T15:21:35.609Z,54.94
2019-05-25T15:24:06.725Z,55.05
2019-05-25T15:26:36.281Z,55.21
2019-05-25T15:29:21.991Z,54.87
2019-05-25T15:32:19.993Z,54.62
2019-05-25T15:34:47.986Z,55.12
2019-05-25T15:37:17.471Z,54.88
2019-05-25T15:39:47.156Z,54.35
2019-05-25T15:42:16.781Z,53.23
2019-05-25T15:44:46.155Z,53.22
2019-05-25T15:47:16.474Z,53.84
2019-05-25T15:49:46.150Z,54.83
2019-05-25T15:52:31.003Z,55.50
2019-05-25T15:55:25.633Z,55.36
2019-05-25T15:57:59.115Z,56.16
2019-05-25T16:00:49.371Z,55.11
2019-05-25T16:03:20.062Z,55.46
2019-05-25T16:05:49.690Z,55.24
2019-05-25T16:08:19.618Z,55.11
2019-05-25T16:10:49.184Z,55.15
2019-05-25T16:13:18.552Z,54.30
2019-05-25T16:15:48.418Z,54.16
2019-05-25T16:18:18.123Z,53.83
2019-05-25T16:20:47.522Z,53.90
2019-05-25T16:23:17.075Z,53.08
2019-05-25T16:25:46.447Z,52.96
2019-05-25T16:28:16.104Z,53.06
2019-05-25T16:30:45.836Z,52.71
2019-05-25T16:33:15.290Z,52.82
2019-05-25T16:35:45.041Z,53.06
2019-05-25T16:38:14.394Z,52.23
2019-05-25T16:40:44.100Z,53.17
2019-05-25T16:43:13.444Z,52.17
2019-05-25T16:45:43.109Z,53.37
2019-05-25T16:48:12.712Z,53.46
2019-05-25T16:50:42.824Z,52.57
2019-05-25T16:53:12.181Z,52.99
2019-05-25T16:55:41.541Z,53.54
2019-05-25T16:58:11.252Z,53.68
2019-05-25T17:00:40.880Z,54.02
2019-05-25T17:03:26.569Z,54.09
2019-05-25T17:05:41.491Z,54.63
2019-05-25T17:08:11.194Z,54.90
2019-05-25T17:10:40.565Z,55.02
2019-05-25T17:13:10.701Z,54.26
2019-05-25T17:15:40.297Z,54.06
2019-05-25T17:18:10.776Z,53.83
2019-05-25T17:20:40.284Z,55.13
2019-05-25T17:23:09.677Z,55.37
2019-05-25T17:25:39.326Z,55.27
2019-05-25T17:28:08.778Z,55.12
2019-05-25T17:30:45.932Z,55.49
2019-05-25T17:33:16.309Z,55.49
2019-05-25T17:35:45.855Z,55.74
2019-05-25T17:38:15.259Z,55.67
2019-05-25T17:40:44.581Z,55.22
2019-05-25T17:43:15.217Z,56.01
2019-05-25T17:45:44.574Z,56.11
2019-05-25T17:48:14.271Z,56.19
2019-05-25T17:50:43.625Z,55.71
2019-05-25T17:53:13.301Z,55.42
2019-05-25T17:55:42.646Z,55.36
2019-05-25T17:58:12.517Z,54.71
2019-05-25T18:00:46.044Z,55.16
2019-05-25T18:03:15.487Z,56.06
2019-05-25T18:05:45.284Z,56.18
2019-05-25T18:08:14.664Z,56.38
2019-05-25T18:10:52.859Z,56.50
2019-05-25T18:13:15.491Z,56.51
2019-05-25T18:15:44.926Z,56.84
2019-05-25T18:18:14.449Z,56.98
2019-05-25T18:20:43.976Z,57.25
2019-05-25T18:23:13.384Z,57.63
2019-05-25T18:25:43.744Z,57.58
2019-05-25T18:28:13.436Z,57.54
2019-05-25T18:30:42.808Z,57.25
2019-05-25T18:33:12.426Z,57.48
2019-05-25T18:35:41.822Z,57.81
2019-05-25T18:38:11.358Z,57.94
2019-05-25T18:40:41.007Z,58.14
2019-05-25T18:43:10.498Z,57.75
2019-05-25T18:45:39.862Z,57.84
2019-05-25T18:48:09.429Z,58.02
2019-05-25T18:50:38.784Z,58.15
2019-05-25T18:53:08.390Z,58.39
2019-05-25T18:55:38.036Z,58.45
2019-05-25T18:58:07.494Z,58.82
2019-05-25T19:00:36.875Z,59.23
2019-05-25T19:03:06.469Z,59.48
2019-05-25T19:05:35.834Z,59.57
2019-05-25T19:08:05.495Z,59.79
2019-05-25T19:10:35.161Z,59.94
2019-05-25T19:13:04.511Z,60.20
2019-05-25T19:15:33.945Z,60.50
2019-05-25T19:18:03.624Z,60.73
2019-05-25T19:20:32.960Z,61.02
2019-05-25T19:23:02.431Z,61.25
2019-05-25T19:25:32.748Z,61.49
2019-05-25T19:28:02.441Z,61.66
2019-05-25T19:30:31.822Z,62.07
2019-05-25T19:33:05.348Z,62.37
2019-05-25T19:35:35.076Z,62.65
2019-05-25T19:38:04.471Z,62.95
2019-05-25T19:40:33.852Z,63.28
2019-05-25T19:43:05.720Z,63.63
2019-05-25T19:45:35.398Z,63.79
2019-05-25T19:48:04.843Z,63.99
2019-05-25T19:50:34.502Z,64.20
2019-05-25T19:53:03.919Z,64.54
2019-05-25T19:55:33.769Z,65.11
2019-05-25T19:58:03.130Z,65.80
2019-05-25T20:00:32.820Z,66.65
2019-05-25T20:03:03.015Z,66.98
2019-05-25T20:05:32.690Z,67.26
2019-05-25T20:08:02.044Z,67.48
2019-05-25T20:10:32.163Z,67.49
2019-05-25T20:13:01.643Z,67.55
2019-05-25T20:15:31.017Z,67.85
2019-05-25T20:18:00.607Z,67.98
2019-05-25T20:20:31.084Z,68.20
2019-05-25T20:23:00.558Z,68.61
2019-05-25T20:25:29.967Z,68.97
2019-05-25T20:27:59.670Z,69.81
2019-05-25T20:30:29.059Z,71.69
2019-05-25T20:33:23.099Z,72.52
2019-05-25T20:35:48.585Z,71.02
2019-05-25T20:38:17.950Z,71.71
2019-05-25T20:40:47.592Z,71.14
2019-05-25T20:43:16.956Z,69.48
2019-05-25T20:45:46.631Z,67.29
2019-05-25T20:48:15.986Z,66.25
2019-05-25T20:50:46.670Z,65.50
2019-05-25T20:53:17.009Z,64.87
2019-05-25T20:55:47.287Z,64.26
2019-05-25T20:58:16.760Z,63.99
2019-05-25T21:00:46.126Z,63.98
2019-05-25T21:03:16.759Z,63.74
2019-05-25T21:05:50.660Z,63.98
2019-05-25T21:08:18.180Z,64.53
2019-05-25T21:10:48.675Z,65.17
2019-05-25T21:13:18.032Z,66.10
2019-05-25T21:15:47.723Z,67.55
2019-05-25T21:18:17.078Z,68.67
2019-05-25T21:20:46.752Z,69.48
2019-05-25T21:23:16.113Z,70.15
2019-05-25T21:25:46.064Z,70.58
2019-05-25T21:28:15.735Z,71.33
2019-05-25T21:30:45.086Z,71.76
2019-05-25T21:33:14.797Z,72.22
2019-05-25T21:35:44.181Z,72.50
2019-05-25T21:38:13.750Z,73.44
2019-05-25T21:40:43.109Z,74.59
2019-05-25T21:43:12.793Z,75.52
2019-05-25T21:45:42.150Z,75.52
2019-05-25T21:48:11.826Z,75.96
2019-05-25T21:50:41.193Z,75.99
2019-05-25T21:53:11.391Z,76.03
2019-05-25T21:55:40.897Z,76.08
2019-05-25T21:58:10.263Z,76.15
2019-05-25T22:00:40.559Z,76.10
2019-05-25T22:03:10.124Z,76.08
2019-05-25T22:05:39.778Z,75.94
2019-05-25T22:08:10.142Z,75.92
2019-05-25T22:10:40.051Z,76.11
2019-05-25T22:13:24.942Z,76.39
2019-05-25T22:15:41.024Z,76.72
2019-05-25T22:18:10.717Z,76.93
2019-05-25T22:20:40.099Z,77.05
2019-05-25T22:23:09.771Z,77.13
2019-05-25T22:25:40.273Z,77.16
2019-05-25T22:28:09.949Z,77.20
2019-05-25T22:30:39.907Z,77.32
2019-05-25T22:33:10.391Z,77.51
2019-05-25T22:35:40.023Z,77.57
2019-05-25T22:38:09.380Z,77.66
2019-05-25T22:40:39.643Z,77.71
2019-05-25T22:43:09.001Z,77.71
2019-05-25T22:45:39.301Z,77.72
2019-05-25T22:48:09.219Z,77.86
2019-05-25T22:50:40.491Z,78.08
2019-05-25T22:53:09.864Z,78.28
2019-05-25T22:55:39.636Z,78.46
2019-05-25T22:58:08.989Z,78.70
2019-05-25T23:00:38.800Z,78.90
2019-05-25T23:03:08.207Z,79.38
2019-05-25T23:05:37.870Z,79.78
2019-05-25T23:08:09.684Z,80.15
2019-05-25T23:10:39.350Z,80.66
2019-05-25T23:13:09.238Z,80.66
2019-05-25T23:15:38.922Z,80.80
2019-05-25T23:18:08.315Z,80.91
2019-05-25T23:20:38.986Z,81.11
2019-05-25T23:23:08.367Z,81.34
2019-05-25T23:25:38.037Z,81.56
2019-05-25T23:28:07.407Z,81.74
2019-05-25T23:30:37.077Z,81.84
2019-05-25T23:33:06.438Z,81.65
2019-05-25T23:35:36.107Z,81.31
2019-05-25T23:38:06.438Z,81.31
2019-05-25T23:40:36.094Z,81.52
2019-05-25T23:43:05.473Z,81.64
2019-05-25T23:45:35.134Z,81.66
2019-05-25T23:48:04.518Z,82.04
2019-05-25T23:50:34.120Z,82.42
2019-05-25T23:53:03.482Z,82.82
2019-05-25T23:55:33.145Z,82.96
2019-05-25T23:58:02.697Z,83.03
